Time;durP1;ratioP1;P1;durP2;ratioP2;P2;SDS_P1;SDS_P2;PMS_P1;PMS_P2;Temp;Humidity;BMP_temperature;BMP_pressure;BME280_temperature;BME280_humidity;BME280_pressure;Samples;Min_cycle;Max_cycle;Signal;HPM_P1;HPM_P2
2023/07/17 00:00:58;;;;;;;6.30;3.05;;;;;;;;;;6148111;23;20006;-69
2023/07/17 00:03:24;;;;;;;8.13;3.03;;;;;;;;;;6146961;23;19998;-69
2023/07/17 00:05:50;;;;;;;8.07;3.30;;;;;;;;;;6147819;23;20009;-69
2023/07/17 00:08:16;;;;;;;7.75;3.25;;;;;;;;;;6148029;23;20059;-69
2023/07/17 00:10:43;;;;;;;4.97;2.50;;;;;;;;;;6148280;23;20017;-69
2023/07/17 00:13:09;;;;;;;6.80;3.03;;;;;;;;;;6147478;23;20032;-69
2023/07/17 00:15:35;;;;;;;6.80;2.92;;;;;;;;;;6148188;23;20018;-69
2023/07/17 00:18:00;;;;;;;7.47;3.00;;;;;;;;;;6148364;23;20363;-69
2023/07/17 00:20:26;;;;;;;9.07;2.92;;;;;;;;;;6147852;23;20443;-69
2023/07/17 00:22:52;;;;;;;6.95;3.15;;;;;;;;;;6147580;23;20005;-69
2023/07/17 00:25:18;;;;;;;6.07;2.72;;;;;;;;;;6147605;23;20009;-69
2023/07/17 00:27:44;;;;;;;7.30;3.35;;;;;;;;;;6147703;23;20085;-69
2023/07/17 00:30:09;;;;;;;5.75;3.30;;;;;;;;;;6121591;23;20024;-69
2023/07/17 00:32:35;;;;;;;12.88;3.28;;;;;;;;;;6145753;23;20466;-69
2023/07/17 00:35:01;;;;;;;11.63;3.80;;;;;;;;;;6146469;23;20056;-69
2023/07/17 00:37:27;;;;;;;8.32;3.85;;;;;;;;;;6121945;23;20001;-69
2023/07/17 00:39:52;;;;;;;14.88;3.92;;;;;;;;;;6146450;23;20025;-69
2023/07/17 00:42:18;;;;;;;8.13;2.78;;;;;;;;;;6147551;23;20013;-68
2023/07/17 00:44:44;;;;;;;11.38;3.22;;;;;;;;;;6146340;23;20332;-68
2023/07/17 00:47:10;;;;;;;5.63;2.80;;;;;;;;;;6121414;23;20094;-68
2023/07/17 00:49:37;;;;;;;7.30;3.33;;;;;;;;;;6147930;23;20040;-68
2023/07/17 00:52:04;;;;;;;6.75;3.08;;;;;;;;;;6147403;23;19998;-68
2023/07/17 00:54:31;;;;;;;8.25;3.28;;;;;;;;;;6171108;23;20078;-68
2023/07/17 00:56:58;;;;;;;6.32;3.28;;;;;;;;;;6147580;23;20006;-68
2023/07/17 00:59:24;;;;;;;5.93;3.03;;;;;;;;;;6121558;23;20020;-68
2023/07/17 01:01:50;;;;;;;13.25;3.60;;;;;;;;;;6121042;23;20183;-68
2023/07/17 01:04:16;;;;;;;9.05;3.28;;;;;;;;;;6147950;23;20017;-68
2023/07/17 01:06:41;;;;;;;9.20;3.22;;;;;;;;;;6121638;23;20074;-68
2023/07/17 01:09:09;;;;;;;7.55;3.42;;;;;;;;;;6145979;23;20092;-68
2023/07/17 01:11:35;;;;;;;10.80;3.58;;;;;;;;;;6170417;23;20076;-68
2023/07/17 01:14:00;;;;;;;6.38;3.38;;;;;;;;;;6145873;23;20048;-68
2023/07/17 01:16:26;;;;;;;6.30;2.92;;;;;;;;;;6146781;22;20009;-68
2023/07/17 01:18:52;;;;;;;7.57;3.05;;;;;;;;;;6146115;23;20025;-68
2023/07/17 01:21:26;;;;;;;6.78;3.00;;;;;;;;;;6146924;22;20028;-68
2023/07/17 01:23:52;;;;;;;10.13;2.90;;;;;;;;;;6147502;23;20140;-69
2023/07/17 01:26:18;;;;;;;7.22;3.13;;;;;;;;;;6147538;23;20014;-69
2023/07/17 01:28:45;;;;;;;7.72;3.38;;;;;;;;;;6147678;23;20080;-68
2023/07/17 01:31:12;;;;;;;7.65;3.30;;;;;;;;;;6121321;23;20025;-68
2023/07/17 01:33:38;;;;;;;6.78;3.38;;;;;;;;;;6145475;23;20100;-68
2023/07/17 01:36:05;;;;;;;5.55;3.03;;;;;;;;;;6121309;23;20461;-69
2023/07/17 01:38:32;;;;;;;7.22;3.22;;;;;;;;;;6147740;23;20044;-69
2023/07/17 01:40:58;;;;;;;5.03;3.33;;;;;;;;;;6146148;23;20343;-70
2023/07/17 01:43:24;;;;;;;6.18;3.28;;;;;;;;;;6120744;23;20020;-69
2023/07/17 01:45:50;;;;;;;9.68;3.53;;;;;;;;;;6170819;23;20006;-68
2023/07/17 01:48:17;;;;;;;7.15;3.22;;;;;;;;;;6121235;23;20028;-68
2023/07/17 01:50:47;;;;;;;14.05;3.45;;;;;;;;;;6121338;23;20008;-69
2023/07/17 01:53:16;;;;;;;7.38;3.33;;;;;;;;;;6144201;23;20395;-68
2023/07/17 01:55:42;;;;;;;11.25;3.83;;;;;;;;;;6147170;23;20005;-67
2023/07/17 01:58:07;;;;;;;10.27;4.05;;;;;;;;;;6120459;23;20401;-68
2023/07/17 02:00:35;;;;;;;15.02;3.75;;;;;;;;;;6120473;23;20012;-68
2023/07/17 02:03:01;;;;;;;10.85;3.63;;;;;;;;;;6120566;23;20056;-67
2023/07/17 02:05:26;;;;;;;11.93;3.47;;;;;;;;;;6146899;23;20006;-68
2023/07/17 02:07:52;;;;;;;11.65;3.90;;;;;;;;;;6146369;23;20024;-68
2023/07/17 02:10:18;;;;;;;13.05;4.45;;;;;;;;;;6146584;23;20015;-67
2023/07/17 02:12:44;;;;;;;8.48;3.42;;;;;;;;;;6144573;23;20280;-68
2023/07/17 02:15:12;;;;;;;22.58;4.55;;;;;;;;;;6120640;23;20013;-67
2023/07/17 02:17:38;;;;;;;10.75;4.40;;;;;;;;;;6170084;23;20013;-68
2023/07/17 02:20:08;;;;;;;11.45;4.70;;;;;;;;;;6146854;23;20054;-68
2023/07/17 02:22:34;;;;;;;9.48;4.28;;;;;;;;;;6145950;23;20018;-67
2023/07/17 02:25:00;;;;;;;10.57;4.13;;;;;;;;;;6169219;23;20435;-67
2023/07/17 02:27:25;;;;;;;10.57;4.43;;;;;;;;;;6147192;23;20014;-67
2023/07/17 02:29:52;;;;;;;13.50;4.40;;;;;;;;;;6121750;23;20017;-67
2023/07/17 02:32:18;;;;;;;8.98;4.88;;;;;;;;;;6147634;22;20033;-68
2023/07/17 02:34:43;;;;;;;14.65;4.68;;;;;;;;;;6121416;23;20424;-67
2023/07/17 02:37:10;;;;;;;12.65;5.25;;;;;;;;;;6120808;23;20020;-67
2023/07/17 02:39:38;;;;;;;10.68;5.20;;;;;;;;;;6121498;23;20088;-67
2023/07/17 02:42:06;;;;;;;17.73;4.80;;;;;;;;;;6120870;23;20022;-67
2023/07/17 02:44:32;;;;;;;16.67;5.07;;;;;;;;;;6147570;23;20457;-67
2023/07/17 02:46:59;;;;;;;13.63;5.00;;;;;;;;;;6147654;23;20014;-67
2023/07/17 02:49:24;;;;;;;15.98;5.05;;;;;;;;;;6146945;23;20439;-67
2023/07/17 02:51:50;;;;;;;16.75;5.13;;;;;;;;;;6121493;23;20024;-67
2023/07/17 02:54:16;;;;;;;14.82;5.43;;;;;;;;;;6146060;23;20013;-67
2023/07/17 02:56:41;;;;;;;12.82;5.30;;;;;;;;;;6146904;23;20072;-67
2023/07/17 02:59:07;;;;;;;11.05;4.88;;;;;;;;;;6148107;23;20454;-67
2023/07/17 03:01:33;;;;;;;12.05;4.50;;;;;;;;;;6147869;23;20010;-67
2023/07/17 03:03:58;;;;;;;12.35;4.18;;;;;;;;;;6169651;23;20016;-67
2023/07/17 03:06:25;;;;;;;16.90;4.55;;;;;;;;;;6122437;23;20021;-68
2023/07/17 03:08:50;;;;;;;17.25;5.20;;;;;;;;;;6148353;23;20032;-68
2023/07/17 03:11:17;;;;;;;11.95;4.60;;;;;;;;;;6147632;23;20322;-68
2023/07/17 03:13:42;;;;;;;9.23;4.43;;;;;;;;;;6146956;22;20009;-68
2023/07/17 03:16:08;;;;;;;13.30;5.13;;;;;;;;;;6147971;23;20061;-68
2023/07/17 03:18:34;;;;;;;11.82;4.97;;;;;;;;;;6121630;23;20009;-67
2023/07/17 03:21:00;;;;;;;13.70;5.20;;;;;;;;;;6121569;23;20021;-68
2023/07/17 03:23:26;;;;;;;12.75;4.80;;;;;;;;;;6121065;23;20010;-68
2023/07/17 03:25:52;;;;;;;14.60;7.53;;;;;;;;;;6121696;23;20024;-68
2023/07/17 03:28:18;;;;;;;11.50;4.68;;;;;;;;;;6121479;23;20013;-68
2023/07/17 03:30:44;;;;;;;9.02;4.20;;;;;;;;;;6148655;23;20379;-68
2023/07/17 03:33:09;;;;;;;7.95;4.28;;;;;;;;;;6122824;23;20435;-68
2023/07/17 03:35:35;;;;;;;10.85;4.38;;;;;;;;;;6122086;23;20017;-67
2023/07/17 03:38:01;;;;;;;9.88;4.53;;;;;;;;;;6124053;23;20013;-67
2023/07/17 03:40:27;;;;;;;10.10;5.28;;;;;;;;;;6123160;23;20025;-68
2023/07/17 03:42:53;;;;;;;8.82;5.15;;;;;;;;;;6123944;23;20045;-67
2023/07/17 03:45:19;;;;;;;8.75;4.22;;;;;;;;;;6148676;23;20093;-67
2023/07/17 03:47:45;;;;;;;9.18;5.00;;;;;;;;;;6124268;23;20036;-68
2023/07/17 03:50:11;;;;;;;10.02;5.38;;;;;;;;;;6150251;23;20342;-68
2023/07/17 03:52:37;;;;;;;12.73;4.85;;;;;;;;;;6123984;23;20418;-67
2023/07/17 03:55:04;;;;;;;15.90;4.95;;;;;;;;;;6148698;23;20017;-67
2023/07/17 03:57:30;;;;;;;10.77;4.55;;;;;;;;;;6148953;23;20006;-67
2023/07/17 03:59:56;;;;;;;7.65;4.82;;;;;;;;;;6124030;23;20040;-68
2023/07/17 04:02:27;;;;;;;12.27;4.95;;;;;;;;;;6149747;23;20005;-67
2023/07/17 04:04:53;;;;;;;14.02;4.75;;;;;;;;;;6150349;23;20020;-67
2023/07/17 04:07:21;;;;;;;14.88;5.43;;;;;;;;;;6150569;23;20377;-67
2023/07/17 04:09:47;;;;;;;8.70;4.72;;;;;;;;;;6124376;23;20017;-67
2023/07/17 04:12:12;;;;;;;13.30;4.60;;;;;;;;;;6123487;23;20002;-68
2023/07/17 04:14:39;;;;;;;10.90;5.07;;;;;;;;;;6173369;22;20092;-68
2023/07/17 04:17:06;;;;;;;15.35;6.22;;;;;;;;;;6123939;23;20012;-68
2023/07/17 04:19:32;;;;;;;10.75;5.40;;;;;;;;;;6172996;23;20347;-68
2023/07/17 04:21:58;;;;;;;15.82;5.95;;;;;;;;;;6123630;23;20029;-68
2023/07/17 04:24:24;;;;;;;10.65;4.80;;;;;;;;;;6124039;23;20020;-69
2023/07/17 04:26:52;;;;;;;12.77;5.45;;;;;;;;;;6148725;23;20457;-68
2023/07/17 04:29:27;;;;;;;14.55;4.68;;;;;;;;;;6124050;23;20086;-68
2023/07/17 04:31:58;;;;;;;11.57;4.78;;;;;;;;;;6123829;23;20012;-68
2023/07/17 04:34:24;;;;;;;10.43;5.60;;;;;;;;;;6149950;23;20014;-68
2023/07/17 04:36:50;;;;;;;12.02;5.28;;;;;;;;;;6149954;22;20001;-68
2023/07/17 04:39:16;;;;;;;13.38;5.75;;;;;;;;;;6123852;23;20009;-68
2023/07/17 04:41:42;;;;;;;8.40;4.97;;;;;;;;;;6149502;23;20088;-68
2023/07/17 04:44:08;;;;;;;15.20;5.40;;;;;;;;;;6123780;23;20024;-68
2023/07/17 04:46:35;;;;;;;17.65;4.95;;;;;;;;;;6123284;23;20009;-69
2023/07/17 04:49:02;;;;;;;16.73;4.80;;;;;;;;;;6147943;23;20014;-68
2023/07/17 04:51:28;;;;;;;14.40;6.32;;;;;;;;;;6171859;23;20005;-68
2023/07/17 04:53:54;;;;;;;14.45;4.88;;;;;;;;;;6172962;23;20017;-68
2023/07/17 04:56:19;;;;;;;19.85;6.15;;;;;;;;;;6123567;23;20002;-67
2023/07/17 04:58:46;;;;;;;15.95;5.43;;;;;;;;;;6123421;23;20009;-67
2023/07/17 05:01:12;;;;;;;13.60;5.00;;;;;;;;;;6123428;23;20036;-67
2023/07/17 05:03:37;;;;;;;15.25;5.55;;;;;;;;;;6123474;23;20072;-68
2023/07/17 05:06:04;;;;;;;11.10;5.28;;;;;;;;;;6122629;23;20431;-68
2023/07/17 05:08:30;;;;;;;11.75;5.43;;;;;;;;;;6122892;23;20022;-68
2023/07/17 05:10:57;;;;;;;22.58;5.97;;;;;;;;;;6123508;23;20005;-68
2023/07/17 05:13:27;;;;;;;12.30;5.53;;;;;;;;;;6172310;23;20036;-69
2023/07/17 05:15:55;;;;;;;15.05;5.07;;;;;;;;;;6123275;23;20017;-68
2023/07/17 05:18:21;;;;;;;8.38;4.50;;;;;;;;;;6121458;23;20013;-68
2023/07/17 05:20:50;;;;;;;10.85;4.55;;;;;;;;;;6122374;23;20013;-68
2023/07/17 05:23:16;;;;;;;11.40;4.72;;;;;;;;;;6146601;23;20476;-68
2023/07/17 05:25:54;;;;;;;14.45;5.53;;;;;;;;;;6122382;23;20013;-68
2023/07/17 05:28:22;;;;;;;9.02;4.15;;;;;;;;;;6171451;23;20096;-68
2023/07/17 05:30:52;;;;;;;11.40;4.75;;;;;;;;;;6172165;23;20015;-67
2023/07/17 05:33:20;;;;;;;9.48;4.47;;;;;;;;;;6172112;23;20045;-68
2023/07/17 05:35:46;;;;;;;8.80;4.82;;;;;;;;;;6122479;23;20351;-68
2023/07/17 05:38:12;;;;;;;10.30;4.22;;;;;;;;;;6122539;23;20020;-68
2023/07/17 05:40:40;;;;;;;9.98;4.30;;;;;;;;;;6122481;23;20009;-69
2023/07/17 05:43:08;;;;;;;10.70;4.68;;;;;;;;;;6148942;23;20020;-68
2023/07/17 05:45:36;;;;;;;11.50;4.50;;;;;;;;;;6147275;23;20085;-67
2023/07/17 05:48:02;;;;;;;12.82;4.50;;;;;;;;;;6147587;23;20423;-68
2023/07/17 05:50:29;;;;;;;11.38;4.47;;;;;;;;;;6148473;23;20467;-68
2023/07/17 05:52:57;;;;;;;9.88;4.88;;;;;;;;;;6147396;23;20009;-68
2023/07/17 05:55:23;;;;;;;14.27;5.15;;;;;;;;;;6121104;23;20018;-68
2023/07/17 05:57:49;;;;;;;15.05;6.20;;;;;;;;;;6122177;23;20048;-67
2023/07/17 06:00:15;;;;;;;15.02;5.22;;;;;;;;;;6123011;23;20006;-68
2023/07/17 06:02:41;;;;;;;8.63;5.43;;;;;;;;;;6148598;23;20018;-68
2023/07/17 06:05:08;;;;;;;11.82;5.13;;;;;;;;;;6150158;23;20001;-68
2023/07/17 06:07:34;;;;;;;13.57;5.20;;;;;;;;;;6150022;23;20101;-68
2023/07/17 06:10:00;;;;;;;10.45;5.30;;;;;;;;;;6150162;23;20036;-68
2023/07/17 06:12:25;;;;;;;12.07;4.70;;;;;;;;;;6150011;23;20439;-68
2023/07/17 06:14:51;;;;;;;16.33;5.97;;;;;;;;;;6150190;23;20008;-68
2023/07/17 06:17:17;;;;;;;19.58;5.63;;;;;;;;;;6150101;23;20017;-68
2023/07/17 06:19:43;;;;;;;10.98;4.82;;;;;;;;;;6149999;23;20013;-67
2023/07/17 06:22:09;;;;;;;11.32;4.93;;;;;;;;;;6149826;22;20010;-68
2023/07/17 06:24:34;;;;;;;13.25;4.22;;;;;;;;;;6149739;23;20011;-69
2023/07/17 06:27:00;;;;;;;9.32;4.72;;;;;;;;;;6150408;23;20063;-69
2023/07/17 06:29:26;;;;;;;9.32;4.43;;;;;;;;;;6149998;23;20011;-70
2023/07/17 06:31:52;;;;;;;10.95;4.55;;;;;;;;;;6148485;23;20029;-70
2023/07/17 06:34:18;;;;;;;10.18;4.70;;;;;;;;;;6150152;23;20032;-69
2023/07/17 06:36:45;;;;;;;9.43;4.63;;;;;;;;;;6150057;23;20066;-68
2023/07/17 06:39:11;;;;;;;11.73;4.63;;;;;;;;;;6148621;23;20009;-69
2023/07/17 06:41:37;;;;;;;11.75;4.10;;;;;;;;;;6149756;23;20022;-68
2023/07/17 06:44:02;;;;;;;12.95;5.00;;;;;;;;;;6150138;23;20033;-70
2023/07/17 06:46:28;;;;;;;9.40;5.22;;;;;;;;;;6149687;23;20340;-69
2023/07/17 06:48:54;;;;;;;8.98;4.75;;;;;;;;;;6150160;23;20043;-69
2023/07/17 06:51:20;;;;;;;11.00;5.25;;;;;;;;;;6150042;23;20108;-71
2023/07/17 06:53:45;;;;;;;10.52;3.67;;;;;;;;;;6149704;22;20416;-69
2023/07/17 06:56:11;;;;;;;10.20;3.72;;;;;;;;;;6149818;23;20009;-68
2023/07/17 07:02:24;;;;;;;10.38;4.70;;;;;;;;;;6149750;23;20021;-67
2023/07/17 07:04:49;;;;;;;8.82;4.07;;;;;;;;;;6149711;22;20010;-69
2023/07/17 07:07:15;;;;;;;10.05;4.75;;;;;;;;;;6150051;23;20107;-70
2023/07/17 07:09:41;;;;;;;12.52;3.92;;;;;;;;;;6149737;23;20287;-69
2023/07/17 07:12:07;;;;;;;8.25;3.50;;;;;;;;;;6149285;23;20008;-70
2023/07/17 07:14:33;;;;;;;9.77;4.13;;;;;;;;;;6148769;23;20119;-69
2023/07/17 07:16:58;;;;;;;9.63;4.63;;;;;;;;;;6149884;23;20084;-69
2023/07/17 07:19:24;;;;;;;7.03;3.47;;;;;;;;;;6149698;23;20014;-70
2023/07/17 07:21:50;;;;;;;7.35;5.22;;;;;;;;;;6150028;22;20450;-69
2023/07/17 07:24:15;;;;;;;8.55;3.30;;;;;;;;;;6149016;23;20032;-68
2023/07/17 07:26:41;;;;;;;7.32;3.40;;;;;;;;;;6149112;23;20006;-69
2023/07/17 07:29:07;;;;;;;8.48;3.70;;;;;;;;;;6150060;23;20036;-70
2023/07/17 07:31:32;;;;;;;9.27;3.97;;;;;;;;;;6150469;23;20411;-69
2023/07/17 07:33:58;;;;;;;11.25;3.95;;;;;;;;;;6149538;23;20077;-68
2023/07/17 07:36:25;;;;;;;7.25;3.47;;;;;;;;;;6149980;23;20054;-70
2023/07/17 07:38:51;;;;;;;7.00;3.95;;;;;;;;;;6149376;23;20009;-69
2023/07/17 07:41:17;;;;;;;9.80;4.03;;;;;;;;;;6149358;23;20415;-69
2023/07/17 07:43:43;;;;;;;5.55;3.40;;;;;;;;;;6149229;23;20013;-69
2023/07/17 07:46:10;;;;;;;8.90;3.58;;;;;;;;;;6149538;23;20008;-68
2023/07/17 07:48:35;;;;;;;12.85;4.38;;;;;;;;;;6149371;23;20048;-68
2023/07/17 07:51:01;;;;;;;7.88;3.53;;;;;;;;;;6149589;23;20001;-69
2023/07/17 07:53:27;;;;;;;10.98;4.00;;;;;;;;;;6149279;23;20458;-69
2023/07/17 07:55:53;;;;;;;7.63;4.25;;;;;;;;;;6149145;23;20435;-68
2023/07/17 07:58:19;;;;;;;6.72;4.13;;;;;;;;;;6149067;23;20014;-67
2023/07/17 08:00:44;;;;;;;8.40;3.80;;;;;;;;;;6149122;23;20016;-68
2023/07/17 08:03:10;;;;;;;14.15;4.63;;;;;;;;;;6148867;23;20024;-68
2023/07/17 08:05:36;;;;;;;12.88;3.97;;;;;;;;;;6149436;23;20008;-67
2023/07/17 08:08:01;;;;;;;5.80;4.05;;;;;;;;;;6149642;23;20010;-67
2023/07/17 08:10:27;;;;;;;8.80;4.10;;;;;;;;;;6149766;22;20092;-68
2023/07/17 08:12:53;;;;;;;9.15;4.25;;;;;;;;;;6149298;23;20009;-66
2023/07/17 08:15:18;;;;;;;11.77;4.13;;;;;;;;;;6149563;22;20002;-67
2023/07/17 08:17:44;;;;;;;7.57;3.53;;;;;;;;;;6149991;23;20009;-67
2023/07/17 08:20:10;;;;;;;8.98;3.60;;;;;;;;;;6149327;23;20005;-67
2023/07/17 08:22:36;;;;;;;7.45;3.72;;;;;;;;;;6148908;23;20087;-67
2023/07/17 08:25:02;;;;;;;9.35;4.05;;;;;;;;;;6149187;23;20089;-67
2023/07/17 08:27:28;;;;;;;10.88;4.18;;;;;;;;;;6149539;23;20025;-67
2023/07/17 08:29:53;;;;;;;6.00;3.45;;;;;;;;;;6147682;23;20006;-67
2023/07/17 08:32:19;;;;;;;6.18;4.13;;;;;;;;;;6149033;23;20005;-68
2023/07/17 08:34:45;;;;;;;29.80;6.40;;;;;;;;;;6147737;22;20009;-67
2023/07/17 08:37:10;;;;;;;13.45;4.28;;;;;;;;;;6149402;23;20010;-68
2023/07/17 08:39:37;;;;;;;15.93;5.57;;;;;;;;;;6149460;23;20006;-69
2023/07/17 08:42:03;;;;;;;8.15;4.50;;;;;;;;;;6149212;23;20063;-68
2023/07/17 08:48:16;;;;;;;5.15;4.00;;;;;;;;;;6148956;23;20024;-67
2023/07/17 08:50:43;;;;;;;13.65;4.45;;;;;;;;;;6149478;23;20013;-67
2023/07/17 08:53:10;;;;;;;9.70;4.10;;;;;;;;;;6149281;23;20008;-68
2023/07/17 08:55:36;;;;;;;8.40;4.22;;;;;;;;;;6149784;22;20019;-66
2023/07/17 08:58:03;;;;;;;8.00;3.92;;;;;;;;;;6149761;23;20076;-67
2023/07/17 09:00:30;;;;;;;7.18;4.03;;;;;;;;;;6147267;23;20370;-67
2023/07/17 09:02:57;;;;;;;10.13;4.72;;;;;;;;;;6148321;23;20005;-68
2023/07/17 09:05:23;;;;;;;10.95;4.53;;;;;;;;;;6148380;23;20075;-68
2023/07/17 09:07:49;;;;;;;15.88;4.63;;;;;;;;;;6148981;23;20024;-68
2023/07/17 09:10:18;;;;;;;10.48;4.22;;;;;;;;;;6149124;23;20005;-68
2023/07/17 09:12:51;;;;;;;8.32;4.20;;;;;;;;;;6148304;23;20009;-68
2023/07/17 09:15:18;;;;;;;8.05;4.47;;;;;;;;;;6148563;23;20021;-68
2023/07/17 09:17:44;;;;;;;11.85;4.00;;;;;;;;;;6149073;23;20081;-68
2023/07/17 09:20:11;;;;;;;6.22;4.25;;;;;;;;;;6149067;23;20101;-69
2023/07/17 09:22:41;;;;;;;7.85;4.10;;;;;;;;;;6148326;23;20010;-70
2023/07/17 09:25:07;;;;;;;13.15;4.55;;;;;;;;;;6148737;23;20147;-69
2023/07/17 09:27:46;;;;;;;8.98;4.35;;;;;;;;;;6149067;22;20386;-68
2023/07/17 09:30:16;;;;;;;7.63;4.50;;;;;;;;;;6149104;23;20325;-68
2023/07/17 09:32:42;;;;;;;9.52;4.70;;;;;;;;;;6147580;23;20010;-69
2023/07/17 09:35:11;;;;;;;8.23;4.75;;;;;;;;;;6148671;23;20032;-70
2023/07/17 09:37:39;;;;;;;7.13;4.53;;;;;;;;;;6148269;23;20435;-69
2023/07/17 09:40:12;;;;;;;8.77;4.80;;;;;;;;;;6148424;22;20009;-70
2023/07/17 09:42:40;;;;;;;9.82;4.40;;;;;;;;;;6148060;23;20086;-69
2023/07/17 09:45:06;;;;;;;9.15;4.53;;;;;;;;;;6148769;23;20017;-68
2023/07/17 09:47:34;;;;;;;8.20;4.93;;;;;;;;;;6148787;22;20048;-69
2023/07/17 09:50:01;;;;;;;11.65;4.97;;;;;;;;;;6149280;23;20080;-69
2023/07/17 09:52:31;;;;;;;8.80;5.10;;;;;;;;;;6148714;22;20091;-68
2023/07/17 09:55:01;;;;;;;8.95;4.55;;;;;;;;;;6148782;23;20108;-69
2023/07/17 09:57:34;;;;;;;15.02;5.25;;;;;;;;;;6148501;23;20478;-70
2023/07/17 10:00:13;;;;;;;13.48;4.95;;;;;;;;;;6148529;23;20432;-67
2023/07/17 10:02:53;;;;;;;13.57;4.72;;;;;;;;;;6148605;23;20016;-70
2023/07/17 10:05:20;;;;;;;13.30;4.97;;;;;;;;;;6148083;23;20013;-68
2023/07/17 10:07:49;;;;;;;10.00;4.85;;;;;;;;;;6148331;23;20415;-69
2023/07/17 10:10:15;;;;;;;12.55;5.05;;;;;;;;;;6147982;23;20020;-69
2023/07/17 10:12:41;;;;;;;13.70;4.95;;;;;;;;;;6148061;23;19994;-69
2023/07/17 10:15:08;;;;;;;13.10;5.10;;;;;;;;;;6148676;22;20214;-69
2023/07/17 10:17:35;;;;;;;8.38;4.60;;;;;;;;;;6149253;23;20006;-70
2023/07/17 10:20:07;;;;;;;7.50;4.68;;;;;;;;;;6149049;23;20083;-70
2023/07/17 10:22:51;;;;;;;8.10;4.72;;;;;;;;;;6122437;23;20017;-69
2023/07/17 10:25:17;;;;;;;7.07;4.68;;;;;;;;;;6148024;23;20369;-69
2023/07/17 10:27:47;;;;;;;9.48;5.20;;;;;;;;;;6148801;23;20033;-69
2023/07/17 10:30:26;;;;;;;10.65;4.97;;;;;;;;;;6147942;23;20017;-69
2023/07/17 10:33:17;;;;;;;7.57;4.65;;;;;;;;;;6148323;23;20025;-69
2023/07/17 10:35:51;;;;;;;13.23;5.00;;;;;;;;;;6146952;23;20081;-67
2023/07/17 10:38:25;;;;;;;9.35;4.93;;;;;;;;;;6147087;23;20009;-68
2023/07/17 10:41:20;;;;;;;8.57;5.20;;;;;;;;;;6147461;23;20024;-68
2023/07/17 10:43:51;;;;;;;8.05;4.57;;;;;;;;;;6135025;23;20018;-67
2023/07/17 10:46:17;;;;;;;7.10;4.72;;;;;;;;;;6147597;23;20037;-67
2023/07/17 10:48:42;;;;;;;10.07;5.18;;;;;;;;;;6149579;23;20016;-68
2023/07/17 10:51:08;;;;;;;9.77;5.00;;;;;;;;;;6148682;23;20593;-67
2023/07/17 10:53:34;;;;;;;9.43;4.97;;;;;;;;;;6150080;23;20010;-67
2023/07/17 10:56:00;;;;;;;7.43;4.78;;;;;;;;;;6150243;23;20350;-68
2023/07/17 10:58:26;;;;;;;9.43;4.70;;;;;;;;;;6150382;23;20009;-69
2023/07/17 11:00:52;;;;;;;9.40;5.00;;;;;;;;;;6150205;23;20012;-69
2023/07/17 11:03:26;;;;;;;12.77;5.00;;;;;;;;;;6149522;23;20001;-67
2023/07/17 11:05:57;;;;;;;10.93;5.25;;;;;;;;;;6150059;23;20439;-68
2023/07/17 11:08:29;;;;;;;8.13;4.90;;;;;;;;;;6150312;23;20018;-69
2023/07/17 11:10:55;;;;;;;9.32;4.57;;;;;;;;;;6149851;23;20049;-68
2023/07/17 11:13:21;;;;;;;8.10;4.20;;;;;;;;;;6149838;22;20012;-67
2023/07/17 11:15:46;;;;;;;7.72;4.40;;;;;;;;;;6150224;22;20066;-68
2023/07/17 11:18:12;;;;;;;6.20;4.13;;;;;;;;;;6150174;23;20009;-68
2023/07/17 11:20:39;;;;;;;8.40;4.45;;;;;;;;;;6150506;23;20010;-69
2023/07/17 11:23:09;;;;;;;10.02;5.05;;;;;;;;;;6149950;23;20054;-69
2023/07/17 11:25:35;;;;;;;9.45;4.30;;;;;;;;;;6150605;23;20080;-67
2023/07/17 11:28:01;;;;;;;8.98;4.90;;;;;;;;;;6148793;23;20398;-67
2023/07/17 11:30:29;;;;;;;9.45;4.65;;;;;;;;;;6149662;23;20462;-69
2023/07/17 11:32:57;;;;;;;8.48;4.30;;;;;;;;;;6149223;23;20008;-69
2023/07/17 11:35:36;;;;;;;7.43;4.70;;;;;;;;;;6150026;23;20606;-68
2023/07/17 11:38:05;;;;;;;8.18;4.10;;;;;;;;;;6124730;23;20014;-68
2023/07/17 11:40:30;;;;;;;8.05;4.35;;;;;;;;;;6150260;23;20059;-67
2023/07/17 11:42:58;;;;;;;6.55;4.90;;;;;;;;;;6149426;22;20009;-70
2023/07/17 11:45:25;;;;;;;9.05;4.55;;;;;;;;;;6149809;23;20002;-68
2023/07/17 11:47:53;;;;;;;8.50;4.68;;;;;;;;;;6149811;23;20010;-68
2023/07/17 11:50:27;;;;;;;5.32;4.28;;;;;;;;;;6150118;22;20002;-68
2023/07/17 11:53:11;;;;;;;9.00;4.60;;;;;;;;;;6149409;23;20446;-68
2023/07/17 11:55:39;;;;;;;8.75;4.50;;;;;;;;;;6149420;23;20028;-69
2023/07/17 12:01:52;;;;;;;12.23;4.70;;;;;;;;;;6148733;23;20408;-69
2023/07/17 12:04:21;;;;;;;12.50;4.22;;;;;;;;;;6149934;23;20010;-68
2023/07/17 12:10:35;;;;;;;7.00;4.40;;;;;;;;;;6149003;23;20024;-68
2023/07/17 12:13:02;;;;;;;5.57;4.05;;;;;;;;;;6150035;23;20010;-67
2023/07/17 12:15:28;;;;;;;7.65;4.30;;;;;;;;;;6149917;22;20005;-68
2023/07/17 12:17:54;;;;;;;6.13;4.53;;;;;;;;;;6150209;23;20033;-68
2023/07/17 12:20:22;;;;;;;6.35;4.30;;;;;;;;;;6150084;22;20004;-68
2023/07/17 12:22:50;;;;;;;7.97;4.15;;;;;;;;;;6150008;23;20041;-68
2023/07/17 12:25:15;;;;;;;8.32;4.47;;;;;;;;;;6149900;23;20435;-68
2023/07/17 12:27:42;;;;;;;10.40;4.40;;;;;;;;;;6150037;23;20017;-67
2023/07/17 12:30:09;;;;;;;7.45;4.20;;;;;;;;;;6123679;23;20005;-67
2023/07/17 12:32:35;;;;;;;9.48;4.45;;;;;;;;;;6123335;23;20126;-67
2023/07/17 12:35:00;;;;;;;9.30;4.50;;;;;;;;;;6149974;23;20092;-69
2023/07/17 12:37:29;;;;;;;8.93;4.78;;;;;;;;;;6123458;23;20335;-68
2023/07/17 12:39:55;;;;;;;8.32;4.40;;;;;;;;;;6149377;23;20077;-69
2023/07/17 12:42:20;;;;;;;4.80;3.95;;;;;;;;;;6148824;23;20096;-68
2023/07/17 12:44:46;;;;;;;5.18;3.78;;;;;;;;;;6123370;23;20012;-67
2023/07/17 12:47:12;;;;;;;9.05;3.90;;;;;;;;;;6149946;23;20017;-68
2023/07/17 12:49:38;;;;;;;7.55;4.18;;;;;;;;;;6149608;23;20020;-69
2023/07/17 12:52:04;;;;;;;11.00;4.72;;;;;;;;;;6148390;23;20095;-68
2023/07/17 12:54:30;;;;;;;4.97;3.72;;;;;;;;;;6148603;23;20047;-67
2023/07/17 12:56:56;;;;;;;6.57;4.28;;;;;;;;;;6146146;22;20030;-68
2023/07/17 12:59:22;;;;;;;10.77;3.95;;;;;;;;;;6148563;23;20028;-67
2023/07/17 13:01:49;;;;;;;7.20;4.68;;;;;;;;;;6149678;23;20016;-68
2023/07/17 13:04:14;;;;;;;9.75;4.35;;;;;;;;;;6124271;23;20065;-67
2023/07/17 13:06:40;;;;;;;9.18;4.30;;;;;;;;;;6149490;23;20459;-68
2023/07/17 13:09:07;;;;;;;8.27;4.25;;;;;;;;;;6123257;23;20123;-67
2023/07/17 13:11:34;;;;;;;9.75;4.28;;;;;;;;;;6148993;23;20016;-70
2023/07/17 13:14:00;;;;;;;5.63;3.95;;;;;;;;;;6150236;23;20051;-72
2023/07/17 13:16:26;;;;;;;6.32;4.28;;;;;;;;;;6149123;23;20020;-69
2023/07/17 13:18:55;;;;;;;8.80;4.07;;;;;;;;;;6148703;23;20033;-69
2023/07/17 13:21:24;;;;;;;7.97;4.13;;;;;;;;;;6149408;23;20084;-69
2023/07/17 13:23:51;;;;;;;8.82;4.55;;;;;;;;;;6123726;23;20044;-68
2023/07/17 13:26:23;;;;;;;5.85;3.85;;;;;;;;;;6147407;22;20063;-68
2023/07/17 13:28:49;;;;;;;8.25;4.10;;;;;;;;;;6149175;23;20178;-67
2023/07/17 13:31:15;;;;;;;9.32;4.57;;;;;;;;;;6148111;23;20442;-68
2023/07/17 13:33:40;;;;;;;6.35;4.50;;;;;;;;;;6150001;22;20093;-68
2023/07/17 13:36:06;;;;;;;6.72;3.83;;;;;;;;;;6123811;23;20009;-67
2023/07/17 13:38:32;;;;;;;5.15;3.90;;;;;;;;;;6149739;22;20419;-68
2023/07/17 13:40:58;;;;;;;9.18;4.50;;;;;;;;;;6149626;23;20268;-67
2023/07/17 13:43:24;;;;;;;6.82;4.22;;;;;;;;;;6149416;23;20010;-68
2023/07/17 13:45:51;;;;;;;8.65;4.32;;;;;;;;;;6149643;23;20024;-68
2023/07/17 13:48:18;;;;;;;6.95;3.80;;;;;;;;;;6149126;23;20078;-68
2023/07/17 13:50:47;;;;;;;9.05;4.30;;;;;;;;;;6149752;23;20009;-67
2023/07/17 13:53:13;;;;;;;7.32;4.07;;;;;;;;;;6123333;23;20021;-67
2023/07/17 13:55:38;;;;;;;7.90;4.45;;;;;;;;;;6149295;22;20316;-66
2023/07/17 13:58:04;;;;;;;6.63;4.45;;;;;;;;;;6149433;23;20006;-67
2023/07/17 14:00:30;;;;;;;6.53;4.30;;;;;;;;;;6149648;23;20009;-68
2023/07/17 14:02:57;;;;;;;5.57;4.30;;;;;;;;;;6149594;23;20470;-67
2023/07/17 14:05:23;;;;;;;7.35;4.50;;;;;;;;;;6123299;23;20006;-69
2023/07/17 14:07:49;;;;;;;10.75;4.20;;;;;;;;;;6148803;23;20017;-67
2023/07/17 14:10:15;;;;;;;9.50;4.65;;;;;;;;;;6149066;23;20502;-68
2023/07/17 14:12:41;;;;;;;7.32;4.07;;;;;;;;;;6149744;23;20056;-68
2023/07/17 14:15:07;;;;;;;7.65;4.20;;;;;;;;;;6148979;23;20009;-67
2023/07/17 14:17:33;;;;;;;7.68;4.70;;;;;;;;;;6148969;22;20451;-67
2023/07/17 14:19:59;;;;;;;12.45;4.55;;;;;;;;;;6149025;22;19997;-68
2023/07/17 14:22:25;;;;;;;10.93;4.40;;;;;;;;;;6147653;23;20005;-67
2023/07/17 14:24:51;;;;;;;7.00;4.15;;;;;;;;;;6124218;23;20387;-67
2023/07/17 14:27:17;;;;;;;6.55;4.50;;;;;;;;;;6150531;23;20040;-67
2023/07/17 14:29:43;;;;;;;10.23;4.68;;;;;;;;;;6149606;23;20001;-67
2023/07/17 14:32:09;;;;;;;6.80;4.32;;;;;;;;;;6150391;23;20005;-67
2023/07/17 14:34:39;;;;;;;8.57;4.28;;;;;;;;;;6150670;23;20005;-67
2023/07/17 14:37:05;;;;;;;6.90;4.40;;;;;;;;;;6150182;23;20020;-67
2023/07/17 14:39:31;;;;;;;6.40;3.85;;;;;;;;;;6150670;23;20005;-66
2023/07/17 14:41:56;;;;;;;5.82;4.10;;;;;;;;;;6124606;23;20331;-66
2023/07/17 14:44:22;;;;;;;5.43;4.25;;;;;;;;;;6124703;23;20391;-68
2023/07/17 14:46:48;;;;;;;8.60;4.30;;;;;;;;;;6149864;22;20005;-68
2023/07/17 14:49:13;;;;;;;7.70;4.32;;;;;;;;;;6149029;23;20005;-68
2023/07/17 14:51:39;;;;;;;6.85;4.57;;;;;;;;;;6149134;23;20002;-66